Date,TemperatureHighF,TemperatureAvgF,TemperatureLowF,DewpointHighF,DewpointAvgF,DewpointLowF,HumidityHigh,HumidityAvg,HumidityLow,PressureMaxIn,PressureMinIn,WindSpeedMaxMPH,WindSpeedAvgMPH,GustSpeedMaxMPH,PrecipitationSumIn
2013-1-1,34,8,-5,18,18,17,23,22,22,23.78,23.69,8,1,8,0.00
2013-1-2,25,0,-17,18,18,17,23,23,22,23.81,23.78,6,0,6,0.00
2013-1-3,34,-3,-22,18,16,14,23,21,20,23.81,23.72,5,0,5,0.00
2013-1-4,35,0,-18,17,15,14,22,20,20,23.75,23.66,5,0,5,0.00
2013-1-5,34,0,-18,16,15,14,20,20,20,23.78,23.66,0,0,0,0.00
2013-1-6,25,10,-6,18,16,14,23,21,20,23.66,23.46,6,0,6,0.00
2013-1-7,18,8,-7,18,16,14,23,21,20,23.52,23.40,7,1,7,0.00
2013-1-8,27,20,15,18,18,17,23,22,22,23.49,17.73,8,2,8,0.00
2013-1-9,40,28,21,18,18,17,23,22,22,17.73,17.73,8,1,8,0.00
2013-1-10,32,24,13,21,18,17,25,22,22,17.73,17.73,0,0,0,0.00
2013-1-11,14,6,-4,18,18,17,23,22,22,17.73,17.73,0,0,0,0.00
2013-1-12,15,-2,-20,18,16,14,23,22,20,17.73,17.73,0,0,0,0.00
2013-1-13,20,-11,-32,15,14,14,20,20,20,17.73,17.73,0,0,0,0.00
2013-1-14,5,-11,-30,15,14,14,20,20,20,17.73,17.73,0,0,0,0.00
2013-1-15,15,2,-8,15,15,14,20,20,20,17.73,17.73,0,0,0,0.00
2013-1-16,21,8,-2,16,15,14,20,20,20,17.73,17.73,0,0,0,0.00
2013-1-17,34,2,-19,16,15,14,20,20,20,17.73,17.73,0,0,0,0.00
2013-1-18,41,6,-13,16,15,14,20,20,20,17.73,17.73,0,0,0,0.00
2013-1-19,41,3,-18,16,15,14,20,20,20,17.73,17.73,0,0,0,0.00
2013-1-20,40,9,-11,16,15,14,20,20,20,17.73,17.73,0,0,0,0.00
2013-1-21,39,4,-13,16,15,14,20,20,20,17.73,17.73,0,0,0,0.00
2013-1-22,33,5,-18,16,15,14,20,20,20,17.73,17.73,0,0,0,0.00
2013-1-23,32,14,-2,16,15,14,20,20,20,17.73,17.73,0,0,0,0.00
2013-1-24,34,26,20,16,15,14,20,20,20,17.73,17.73,0,0,0,0.00
2013-1-25,40,32,28,18,17,15,23,22,20,17.73,17.73,9,0,9,0.00
2013-1-26,42,34,32,18,18,17,22,22,22,17.73,17.73,6,0,6,0.00
2013-1-27,34,28,20,18,18,17,23,22,22,17.73,17.73,9,0,9,0.00
2013-1-28,20,19,13,18,18,17,23,22,22,17.73,17.73,0,0,0,0.00
2013-1-29,21,13,10,18,18,17,23,22,22,17.73,17.73,0,0,0,0.00
2013-1-30,27,14,12,18,18,17,23,22,22,17.73,17.73,8,1,11,0.00
2013-1-31,33,26,22,18,18,17,23,22,22,17.73,17.73,13,3,13,0.00
2013-2-1,45,28,21,18,18,17,23,22,22,17.73,17.73,13,3,13,0.00
2013-2-2,34,26,13,18,18,17,23,22,22,17.73,17.73,9,2,9,0.00
2013-2-3,36,22,11,18,18,17,23,22,22,17.73,17.73,8,2,8,0.00
2013-2-4,30,24,20,18,18,17,23,22,22,17.73,17.73,9,2,9,0.00
2013-2-5,44,27,14,18,18,17,23,22,22,17.73,17.73,5,0,5,0.00
2013-2-6,37,17,3,18,18,17,23,22,22,17.73,17.73,9,2,9,0.00
2013-2-7,48,26,13,18,18,17,23,22,22,17.73,17.73,6,1,6,0.00
2013-2-8,16,13,10,18,18,17,22,22,22,17.73,17.73,4,0,4,0.00
2013-2-24,37,20,4,29,25,21,23,22,20,24.02,23.93,11,3,11,0.00
2013-2-25,29,18,10,28,24,20,23,21,20,23.99,23.81,10,2,11,0.00
2013-2-26,46,15,-3,27,23,21,23,21,20,24.05,23.78,15,2,15,0.00
2013-2-27,32,18,9,26,23,21,22,21,20,24.17,24.05,11,3,11,0.00
2013-2-28,36,21,14,28,23,21,22,21,20,24.22,24.08,7,2,8,0.00
2013-3-1,36,27,19,27,23,20,24,22,20,24.28,24.19,9,2,9,0.00
2013-3-2,41,32,28,32,26,20,23,22,21,24.25,23.93,6,1,6,0.00
2013-3-3,35,29,9,29,26,25,24,23,23,23.93,23.57,20,2,20,0.00
2013-3-4,38,14,-5,29,26,22,24,23,20,24.02,23.66,13,2,13,0.00
2013-3-5,46,17,-4,28,24,20,23,22,20,24.05,23.66,6,1,6,0.00
2013-3-6,37,24,6,28,25,21,23,22,20,23.72,23.52,9,0,12,0.00
2013-3-7,51,31,22,30,26,20,24,23,21,23.78,23.46,0,0,0,0.00
2013-3-8,51,31,13,29,25,23,24,24,22,23.63,23.25,6,1,6,0.00
2013-3-9,47,25,6,25,23,21,24,22,21,23.93,23.34,18,3,18,0.00
2013-3-10,48,21,-2,27,22,21,23,21,20,23.96,23.57,12,3,13,0.00
2013-3-11,48,30,15,30,24,19,24,22,21,23.81,23.46,22,5,22,0.00
2013-3-12,47,24,1,30,24,19,24,22,20,23.90,23.52,8,2,8,0.00
2013-3-13,51,37,30,29,24,18,24,24,22,23.81,23.60,8,1,8,0.00
2013-3-14,56,35,19,22,21,18,25,24,22,23.75,23.49,11,-27,11,0.00
2013-3-15,60,38,27,22,21,21,25,25,24,23.60,23.37,11,-20,11,0.00
2013-3-16,58,35,15,22,21,21,25,25,24,23.49,23.13,18,-26,18,0.00
2013-3-17,36,29,16,22,20,18,25,23,22,23.37,22.95,25,11,26,0.00
2013-3-18,40,22,8,19,18,18,22,22,22,23.43,23.22,16,4,16,0.00
2013-3-19,44,25,6,19,18,18,22,22,22,23.63,21.74,11,4,12,0.00
2013-3-20,44,29,11,19,18,18,22,22,22,23.52,20.12,13,2,13,0.00
2013-3-21,44,29,12,19,18,18,22,22,22,23.31,20.35,20,3,20,0.00
2013-3-22,41,19,1,19,18,16,22,22,20,23.31,20.15,16,2,16,0.00
2013-3-23,33,12,-4,19,17,15,22,21,19,23.49,20.44,17,4,17,0.00
2013-3-24,36,10,-13,16,16,15,20,20,19,23.55,20.24,14,3,14,0.00
2013-3-25,39,12,-15,16,16,15,20,20,19,23.52,17.73,13,3,13,0.00
2013-3-26,59,28,1,19,16,15,22,20,19,23.40,17.73,11,2,11,0.00
2013-3-27,55,35,21,19,18,15,22,22,20,23.46,20.21,10,1,10,0.00
2013-3-28,66,35,15,19,18,18,22,22,22,23.46,19.94,10,2,10,0.00
2013-3-29,66,38,22,19,19,18,22,22,22,23.49,17.73,13,2,15,0.00
2013-3-30,52,36,23,20,19,18,22,22,22,23.52,17.73,9,-27,10,0.00
2013-3-31,60,36,15,21,18,18,22,22,22,23.49,17.73,11,2,11,0.00
2013-4-1,63,38,18,21,19,18,22,22,21,23.31,17.73,12,-1,12,0.00
2013-4-2,62,38,20,21,19,18,22,22,21,23.40,17.73,11,2,11,0.00
2013-4-3,72,42,25,23,19,18,24,22,22,23.49,17.73,9,2,10,0.00
2013-4-4,65,40,26,22,19,18,25,22,22,17.73,17.73,15,2,16,0.00
2013-4-5,51,39,33,22,21,21,25,25,24,17.73,17.73,17,3,17,0.00
2013-4-6,48,37,29,22,21,21,25,25,24,17.73,17.73,9,1,11,0.00
2013-4-7,42,35,33,22,22,21,25,25,25,20.83,17.73,23,2,23,0.00
2013-4-8,34,29,21,22,20,17,25,24,22,17.73,17.73,26,7,26,0.00
2013-4-9,45,28,19,19,18,15,23,22,20,17.73,17.73,24,7,24,0.00
2013-4-10,58,31,7,19,18,18,22,22,22,17.73,17.73,12,3,13,0.00
2013-4-11,51,38,31,24,19,18,24,22,22,17.73,17.73,13,4,13,0.00
2013-4-12,61,37,23,23,19,18,24,22,22,17.73,17.73,11,3,11,0.00
2013-4-13,50,35,24,22,20,18,25,23,22,17.73,17.73,31,6,31,0.00
2013-4-14,50,29,18,21,18,18,22,22,21,17.73,17.73,20,6,20,0.00
2013-4-15,41,28,20,19,18,15,22,22,20,17.73,17.73,15,6,18,0.00
2013-4-16,36,24,17,17,16,15,20,20,19,17.73,17.73,22,8,22,0.00
2013-4-17,37,24,11,22,16,15,22,20,19,17.73,17.73,20,6,20,0.00
2013-4-18,42,25,5,21,16,15,21,20,19,17.73,17.73,13,3,13,0.00
2013-4-19,46,33,24,19,18,15,22,21,19,17.73,17.73,13,2,13,0.00
2013-4-20,62,38,27,19,19,18,22,22,22,17.73,17.73,21,2,24,0.00
2013-4-21,51,36,24,19,18,18,22,22,22,17.73,17.73,17,3,17,0.00
2013-4-22,39,28,18,20,19,16,22,22,20,17.73,17.73,20,5,20,0.00
2013-4-23,51,28,7,19,18,18,22,22,22,17.73,17.73,15,3,15,0.00
2013-4-24,57,33,18,19,18,18,22,22,22,17.73,17.73,15,3,15,0.00
2013-4-25,60,39,20,19,18,18,22,22,22,17.73,17.73,15,3,15,0.00
2013-4-26,63,44,23,20,19,18,22,22,22,17.73,17.73,14,3,14,0.00
2013-4-27,64,47,26,23,20,18,24,23,22,17.73,17.73,18,4,18,0.00
2013-4-28,65,46,35,22,20,18,24,23,22,17.73,17.73,11,2,11,0.00
2013-4-29,58,41,30,22,21,18,25,24,22,17.73,17.73,28,6,29,0.00
2013-4-30,51,35,23,22,19,18,25,23,22,17.73,17.73,15,4,15,0.00
2013-5-1,52,35,23,19,19,18,22,22,22,17.73,17.73,14,5,19,0.00
2013-5-2,54,36,16,19,18,18,22,22,22,17.73,17.73,13,3,15,0.00
2013-5-3,63,44,27,20,19,18,22,22,22,17.73,17.73,13,3,13,0.00
2013-5-4,57,46,38,22,20,18,25,24,22,17.73,17.73,19,7,23,0.00
2013-5-5,67,50,37,23,22,21,25,25,24,17.73,17.73,15,5,15,0.00
2013-5-6,74,51,30,24,22,21,25,24,24,17.73,17.73,11,3,13,0.00
2013-5-7,74,50,29,24,22,21,25,24,24,17.73,17.73,17,2,18,0.00
2013-5-8,75,55,33,24,23,21,25,25,24,17.73,17.73,14,3,15,0.00
2013-5-9,71,51,31,25,23,21,25,25,24,17.73,17.73,17,2,18,0.00
2013-5-10,73,54,32,25,23,21,25,25,24,17.73,17.73,16,3,17,0.00
2013-5-11,73,53,30,25,23,21,25,25,24,17.73,17.73,21,2,21,0.00
2013-5-12,76,58,36,28,24,22,25,24,24,17.73,17.73,15,2,15,0.00
2013-5-13,78,61,38,28,26,24,25,25,24,17.73,17.73,28,7,29,0.00
2013-5-14,72,56,36,28,26,25,25,24,24,17.73,17.73,21,5,22,0.00
2013-5-15,74,53,30,27,25,24,25,24,24,17.73,17.73,26,4,28,0.00
2013-5-16,65,53,41,26,25,23,25,25,25,17.73,17.73,20,4,20,0.00
2013-5-17,53,47,44,29,24,22,33,27,25,17.73,17.73,13,-7,13,0.00
2013-5-18,53,44,40,25,24,24,29,28,27,17.73,17.73,14,-8,14,0.00
2013-5-19,60,46,38,26,24,23,29,28,27,17.73,17.73,22,6,23,0.00
2013-5-20,67,52,40,36,28,24,31,29,27,17.73,17.73,19,6,19,0.00
2013-5-21,64,50,30,48,36,29,41,32,27,17.73,17.73,15,-1,15,0.00
2013-5-22,66,51,41,40,37,33,33,31,27,17.73,17.73,15,5,15,0.00
2013-5-23,66,47,34,51,38,31,48,32,26,17.73,17.73,19,4,22,0.00
2013-5-24,58,46,32,38,32,27,32,28,25,17.73,17.73,22,6,22,0.00
2013-5-25,63,49,29,28,26,25,27,26,25,17.73,17.73,17,4,17,0.00
2013-5-26,70,51,32,42,27,24,37,27,25,17.73,17.73,26,4,26,0.00
2013-5-27,58,47,40,42,38,35,35,33,31,17.73,17.73,19,4,19,0.00
2013-5-28,62,46,40,40,38,36,33,32,30,17.73,17.73,13,3,18,0.00
2013-5-29,56,46,41,43,37,35,39,34,33,17.73,17.73,15,3,15,0.00
2013-5-30,60,47,36,36,33,30,34,31,26,17.73,17.73,17,-6,17,0.00
2013-5-31,68,48,32,33,32,28,28,27,25,17.73,17.73,17,-45,18,0.00
2013-6-1,68,49,28,33,31,28,28,26,25,17.73,17.73,12,-26,13,0.00
2013-6-2,72,55,33,40,31,28,32,26,22,17.73,17.73,28,5,28,0.00
2013-6-3,68,50,33,32,30,28,27,25,24,17.73,17.73,17,6,17,0.00
2013-6-4,68,52,41,32,30,28,27,25,24,17.73,17.73,15,4,17,0.00
2013-6-5,57,39,30,33,29,26,26,25,23,17.73,17.73,8,1,8,0.00
2013-6-18,73,65,58,35,32,31,23,22,20,23.84,23.78,10,2,10,0.00
2013-6-19,69,55,42,32,31,29,26,24,23,23.93,23.72,31,6,31,0.00
2013-6-20,58,45,35,31,28,26,25,24,22,24.02,23.90,15,6,15,0.00
2013-6-21,63,48,30,30,27,24,25,24,23,23.99,23.90,17,3,18,0.00
2013-6-22,61,48,35,34,29,25,25,24,23,24.05,23.93,13,2,15,0.00
2013-6-23,70,53,32,32,30,28,26,24,23,24.02,23.81,13,3,15,0.00
2013-6-24,71,56,40,37,33,30,29,26,25,23.90,23.72,17,4,21,0.00
2013-6-25,64,54,49,40,37,34,33,31,27,24.02,23.87,15,5,17,0.00
2013-6-26,72,60,49,44,40,35,36,33,26,24.17,23.99,17,4,18,0.00
2013-6-27,83,64,41,43,39,34,35,31,24,24.25,24.17,12,2,13,0.00
2013-6-28,94,69,46,46,39,35,40,28,19,24.28,24.22,11,2,11,0.00
2013-6-29,92,69,49,44,41,38,34,28,23,24.22,24.22,26,4,29,0.00
2013-6-30,96,72,48,43,39,36,33,27,21,24.22,24.17,18,3,18,0.00
2013-7-1,96,74,51,44,42,39,33,30,25,24.25,24.19,13,3,13,0.00
2013-7-2,95,73,52,44,41,38,31,29,28,24.22,24.14,10,2,11,0.00
2013-7-3,97,74,53,43,40,38,30,28,25,24.19,24.05,13,2,15,0.00
2013-7-4,85,67,51,42,40,37,30,28,27,24.08,23.96,22,2,22,0.00
2013-7-5,78,63,51,42,40,38,32,30,29,24.02,23.90,20,3,24,0.00
2013-7-6,77,58,45,40,38,35,32,32,30,24.02,23.93,15,2,15,0.00
2013-7-7,80,64,44,41,38,35,33,32,31,24.05,23.93,19,3,19,0.00
2013-7-8,80,64,45,40,39,37,33,32,28,24.11,24.02,21,3,21,0.00
2013-7-9,83,65,44,40,37,34,32,30,27,24.19,24.11,12,2,12,0.00
2013-7-10,92,68,43,39,37,34,30,29,26,24.17,24.02,12,2,12,0.00
2013-7-11,75,62,50,39,37,35,30,29,28,24.05,23.99,16,3,17,0.00
2013-7-12,76,62,48,36,35,34,31,30,27,24.05,23.96,15,3,17,0.00
2013-7-13,79,63,42,38,35,33,31,29,27,24.11,24.02,15,4,17,0.00
2013-7-14,82,65,45,38,36,34,30,29,27,24.17,24.08,15,3,15,0.00
2013-7-15,85,66,45,38,35,34,30,28,26,24.11,24.02,14,3,17,0.00
2013-7-16,85,67,46,41,38,34,32,30,28,24.19,24.05,15,3,16,0.00
2013-7-17,84,70,56,43,41,39,33,32,32,24.19,24.14,19,4,20,0.00
2013-7-18,94,71,52,42,41,39,32,31,27,24.22,24.17,16,3,16,0.00
2013-7-19,96,69,44,42,38,34,32,28,24,24.19,24.08,17,2,17,0.00
2013-7-20,94,67,43,37,35,32,28,26,24,24.11,23.96,17,3,22,0.00
2013-7-21,85,66,42,36,33,32,27,25,23,24.02,23.96,13,3,13,0.00
2013-7-22,88,65,39,34,32,31,26,24,22,24.05,23.99,15,3,16,0.00
2013-7-23,96,67,40,33,32,30,25,24,22,24.17,24.05,13,2,16,0.00
2013-7-24,90,70,49,34,32,30,24,24,22,24.17,24.08,13,3,15,0.00
2013-7-25,93,65,43,34,32,30,25,24,23,24.19,24.08,15,2,15,0.00
2013-7-26,87,68,47,35,33,32,25,24,24,24.22,24.14,26,3,26,0.00
2013-7-27,72,61,46,35,33,32,26,25,25,24.14,23.99,18,2,18,0.00
2013-7-28,76,59,44,34,32,31,27,26,26,24.02,23.93,23,2,23,0.00
2013-7-29,78,59,41,34,32,31,28,28,27,24.08,23.96,26,3,26,0.00
2013-7-30,78,59,44,36,33,31,31,29,28,24.19,24.08,22,3,22,0.00
2013-7-31,85,63,41,38,34,32,32,30,28,24.19,24.11,17,4,17,0.00
2013-8-1,84,68,52,38,36,33,33,30,25,24.17,23.90,21,5,22,0.00
2013-8-2,74,60,46,36,34,31,30,27,24,24.08,23.93,17,4,18,0.00
2013-8-3,79,60,38,32,31,30,28,26,24,24.08,24.05,20,3,20,0.00
2013-8-4,83,62,37,32,31,29,27,26,24,24.11,24.05,16,3,17,0.00
2013-8-5,88,64,38,32,31,29,26,25,23,24.08,23.96,26,3,29,0.00
2013-8-6,86,65,43,32,31,29,26,25,23,24.08,23.99,20,3,20,0.00
2013-8-7,93,66,40,32,31,29,26,24,23,24.08,23.99,19,3,19,0.00
2013-8-8,92,63,40,32,30,28,25,24,23,24.14,23.99,16,3,18,0.00
2013-8-9,86,64,47,34,32,29,29,26,25,24.11,24.02,15,3,15,0.00
2013-8-10,82,68,48,34,32,32,27,26,24,24.11,24.11,17,4,18,0.00
2013-8-11,83,66,42,32,31,30,25,24,23,24.14,24.05,19,4,19,0.00
2013-8-12,86,63,40,32,30,30,25,24,23,24.14,24.08,24,3,24,0.00
2013-8-13,86,63,39,31,30,28,25,24,23,24.19,24.08,19,4,19,0.00
2013-8-14,93,65,41,32,30,28,25,24,24,24.17,24.08,14,2,14,0.00
2013-8-15,88,66,41,32,30,28,25,24,22,24.11,24.08,13,2,13,0.00
2013-8-16,89,66,40,32,30,28,25,23,22,24.11,24.08,18,3,19,0.00
2013-8-17,89,66,42,32,30,28,24,23,23,24.14,24.05,19,3,23,0.00
2013-8-18,89,70,52,33,31,29,24,23,22,24.14,24.05,15,3,19,0.00
2013-8-19,88,66,43,33,31,29,23,23,22,24.14,24.05,12,2,13,0.00
2013-8-20,87,68,44,33,31,29,24,23,22,24.11,24.02,20,3,20,0.00
2013-8-21,79,64,47,34,32,30,25,24,23,24.19,24.08,19,3,19,0.00
2013-8-22,82,67,46,35,33,31,25,25,24,24.17,24.02,15,3,17,0.00
2013-8-23,82,65,49,34,33,32,25,25,24,24.08,23.96,15,3,15,0.00
2013-8-24,78,63,52,33,32,30,26,26,25,24.11,23.99,23,4,24,0.00
2013-8-25,80,64,44,34,32,30,27,26,24,24.14,24.02,15,3,17,0.00
2013-8-26,76,65,52,36,34,31,27,26,24,24.17,24.05,15,3,15,0.00
2013-8-27,82,64,45,36,34,32,27,27,25,24.17,24.05,14,2,14,0.00
2013-8-28,77,62,50,39,36,32,32,29,25,24.17,24.08,17,3,22,0.00
2013-8-29,83,64,45,39,36,33,32,30,29,24.17,24.11,23,3,23,0.00
2013-8-30,85,65,44,37,35,33,30,28,26,24.19,24.08,19,3,21,0.00
2013-8-31,88,63,38,35,32,31,28,26,24,24.17,24.08,17,2,17,0.00
2013-9-1,89,63,38,33,31,29,27,25,24,24.11,24.02,11,1,11,0.00
2013-9-2,71,57,44,32,30,29,27,26,25,24.08,24.02,11,1,11,0.00
2013-9-3,83,63,46,39,33,29,32,29,27,24.22,24.08,15,2,15,0.00
2013-9-4,81,65,52,41,38,34,33,31,27,24.22,24.17,13,2,13,0.00
2013-9-5,82,62,46,39,37,34,33,32,31,24.19,24.08,16,2,16,0.00
2013-9-6,81,63,47,40,38,34,34,32,28,24.14,24.08,18,3,18,0.00
2013-9-7,77,60,48,39,38,36,33,33,32,24.17,24.11,24,2,24,0.00
2013-9-8,73,56,47,37,36,35,34,33,32,24.11,23.96,24,3,24,0.00
2013-9-9,76,56,43,35,34,33,35,34,33,24.05,23.96,10,1,11,0.00
2013-9-10,87,59,36,37,34,32,35,34,33,24.11,24.05,13,2,13,0.00
2013-9-11,84,64,46,36,33,31,34,30,26,24.19,24.11,17,4,17,0.00
2013-9-12,68,60,55,38,33,30,36,31,27,24.19,24.05,13,5,15,0.00
2013-9-13,77,59,40,37,35,34,35,34,33,24.08,23.87,13,2,13,0.00
2013-9-14,65,55,46,36,35,33,37,35,34,24.02,23.93,17,3,17,0.00
2013-9-15,79,61,50,38,36,35,39,38,36,24.08,24.02,17,3,17,0.00
2013-9-16,75,60,46,40,36,34,38,36,35,24.05,23.93,14,2,15,0.00
2013-9-17,69,54,46,38,36,34,40,37,36,23.96,23.72,17,2,20,0.00
2013-9-18,50,43,36,35,32,30,39,38,37,23.99,23.75,18,3,18,0.00
2013-9-19,62,44,30,38,32,29,39,37,33,24.11,23.99,11,2,11,0.00
2013-9-20,71,47,28,37,32,25,36,30,24,24.11,23.90,11,2,11,0.00
2013-9-21,72,52,32,35,32,29,34,29,25,23.93,23.69,17,3,18,0.00
2013-9-22,63,51,42,38,35,33,32,31,29,23.81,23.66,13,4,13,0.00
2013-9-23,59,47,37,40,37,35,34,32,29,24.02,23.81,15,3,17,0.00
2013-9-24,58,44,34,39,36,33,34,33,32,23.99,23.75,34,3,34,0.00
2013-9-25,45,40,36,39,36,32,35,33,32,23.75,23.63,16,3,16,0.00
2013-9-26,55,39,34,37,34,31,35,32,30,23.84,23.69,11,3,11,0.00
2013-9-27,59,42,34,37,33,31,34,32,30,23.99,23.78,13,4,13,0.00
2013-9-28,50,40,33,36,33,30,34,33,31,24.08,23.96,13,3,13,0.00
2013-9-29,49,46,42,37,34,32,35,32,28,23.96,23.81,22,7,22,0.00
2013-9-30,58,48,32,38,35,32,35,33,30,23.96,23.69,34,8,34,0.00
2013-10-1,57,41,28,41,36,31,35,33,31,23.99,23.90,20,3,20,0.00
2013-10-2,53,39,26,37,34,32,34,32,28,24.02,23.81,11,1,11,0.00
2013-10-3,40,34,30,39,34,29,33,30,27,23.99,23.75,15,1,16,0.00
2013-10-4,56,36,24,31,27,24,30,28,26,24.22,23.99,15,2,15,0.00
2013-10-5,51,32,14,27,26,26,29,29,28,24.28,24.22,11,1,11,0.00
2013-10-6,64,39,22,33,28,26,29,29,26,24.28,24.14,11,1,11,0.00
2013-10-7,63,44,23,35,30,25,28,26,23,24.14,23.84,15,2,15,0.00
2013-10-8,50,40,26,33,30,27,28,26,25,23.87,23.75,13,3,15,0.00
2013-10-9,59,35,20,31,28,24,27,25,23,23.87,23.81,17,3,18,0.00
2013-10-10,62,48,37,40,32,31,34,27,26,23.78,23.66,13,2,13,0.00
2013-10-11,60,39,24,34,30,26,28,26,25,23.99,23.78,17,2,17,0.00
2013-10-12,51,34,24,32,29,27,28,27,25,23.99,23.90,7,0,7,0.00
2013-10-13,41,36,31,37,31,26,29,26,25,23.99,23.90,11,2,15,0.00
2013-10-14,47,36,30,34,30,28,29,26,25,24.17,23.96,15,2,15,0.00
2013-10-15,54,35,21,34,30,25,27,25,23,24.19,24.08,13,2,13,0.00
2013-10-16,43,31,16,31,26,23,26,25,24,24.11,23.99,12,2,12,0.00
2013-10-17,52,36,29,24,23,23,26,26,26,24.05,23.96,17,2,17,0.00
2013-10-18,50,34,19,24,23,23,26,26,26,24.11,24.02,15,2,15,0.00
2013-10-19,51,33,19,24,23,23,26,26,26,24.08,23.93,10,1,10,0.00
2013-10-20,62,39,23,24,23,23,26,26,26,24.02,23.93,13,2,13,0.00
2013-10-21,59,37,20,24,23,23,26,26,26,24.11,24.02,13,2,13,0.00
2013-10-22,65,39,21,25,24,23,26,26,25,24.14,24.08,11,1,13,0.00
2013-10-23,65,41,20,25,24,23,26,26,26,24.08,24.02,9,1,9,0.00
2013-10-24,70,42,21,25,24,23,26,26,26,24.08,24.02,8,1,9,0.00
2013-10-25,65,42,22,25,24,23,26,26,25,24.17,24.08,9,1,10,0.00
2013-10-26,63,39,20,24,23,23,26,26,25,24.19,24.05,10,1,10,0.00
2013-10-27,58,39,20,24,23,22,26,26,25,24.05,23.69,13,1,13,0.00
2013-10-28,45,39,30,23,22,22,25,25,25,23.75,23.60,19,8,20,0.00
2013-10-29,34,31,26,23,22,22,25,25,25,23.78,23.78,8,2,11,0.00
2013-10-30,33,32,31,24,23,22,26,26,25,23.87,23.75,9,3,10,0.00
2013-10-31,33,30,27,24,23,23,26,26,26,23.96,23.87,11,3,11,0.00
2013-11-1,39,30,22,24,23,23,26,26,26,24.11,23.96,9,1,9,0.00
2013-11-2,52,38,22,24,23,23,26,26,26,24.08,23.60,20,3,20,0.00
2013-11-3,38,26,12,24,23,22,26,26,25,23.81,23.60,17,1,17,0.00
2013-11-4,43,22,10,23,22,22,25,25,25,23.90,23.78,0,0,0,0.00
2013-11-5,24,20,13,23,22,22,25,25,25,24.05,23.90,0,0,0,0.00
2013-11-6,38,28,22,23,22,22,25,25,25,24.17,24.02,8,1,8,0.00
2013-11-7,39,34,29,23,22,22,25,25,25,24.17,23.72,7,0,7,0.00
2013-11-8,44,33,24,23,22,22,25,25,25,23.96,23.72,22,3,22,0.00
2013-11-9,60,34,19,23,22,22,25,25,25,24.08,23.96,5,0,6,0.00
2013-11-10,60,32,17,23,22,22,25,25,25,24.11,24.05,5,0,5,0.00
2013-11-11,64,33,18,23,22,22,25,25,25,24.28,24.08,4,0,4,0.00
2013-11-12,68,31,13,23,22,22,25,25,25,24.31,24.19,6,0,6,0.00
2013-11-13,38,33,27,23,22,22,25,25,25,24.19,24.05,7,0,7,0.00
2013-11-14,37,30,22,23,22,22,25,25,25,24.05,23.66,9,1,12,0.00
2013-11-15,34,23,12,23,22,22,25,25,25,23.66,23.46,15,3,15,0.00
2013-11-16,29,24,11,23,22,22,25,25,25,23.55,23.31,23,8,23,0.00
2013-11-17,39,19,4,23,22,21,25,25,25,23.96,23.55,10,2,10,0.00
2013-11-18,45,32,24,23,22,22,25,25,25,23.99,23.78,8,1,9,0.00
2013-11-19,36,33,28,23,22,22,25,25,25,23.78,23.72,13,3,13,0.00
2013-11-20,35,31,18,23,22,21,25,25,25,23.87,23.66,15,4,15,0.00
2013-11-21,35,14,-4,23,22,21,25,25,24,24.25,23.87,13,2,13,0.00
2013-11-22,55,12,-12,22,20,18,25,23,22,24.28,24.22,6,-4,6,0.00
2013-11-23,58,20,-1,22,19,18,24,22,22,24.22,24.05,8,1,8,0.00
2013-11-24,48,17,-3,20,19,18,22,22,22,24.05,23.96,5,-3,5,0.00
2013-11-25,58,24,6,20,19,18,22,22,22,24.22,24.05,5,0,5,0.00
2013-11-26,52,19,2,20,19,18,22,22,22,24.11,24.08,5,-14,5,0.00
2013-11-27,69,25,6,20,19,18,22,22,22,24.08,23.96,6,-3,6,0.00
2013-11-28,46,22,6,20,19,18,22,22,22,24.02,23.96,5,0,5,0.00
2013-11-29,61,24,5,20,19,18,22,22,22,24.08,23.99,6,1,7,0.00
2013-11-30,46,27,11,22,19,19,24,22,22,24.08,24.05,6,0,6,0.00
2013-12-1,34,31,29,22,21,19,24,24,22,24.05,23.75,15,4,17,0.00
2013-12-2,37,32,22,23,21,21,25,24,24,23.75,23.43,26,4,30,0.00
2013-12-3,28,8,-9,22,20,18,24,23,22,23.66,23.46,0,0,0,0.00
2013-12-4,20,-6,-18,19,17,12,22,21,19,23.81,23.63,13,1,15,0.00
2013-12-5,34,-6,-25,16,16,15,20,20,19,23.78,23.75,5,0,5,0.00
2013-12-6,18,-7,-26,16,16,15,20,20,19,23.81,23.75,6,0,6,0.00
2013-12-7,12,1,-13,16,16,15,20,20,19,23.75,23.52,12,4,13,0.00
2013-12-8,8,-11,-27,16,16,15,20,20,19,23.90,23.63,10,1,10,0.00
2013-12-9,8,-10,-32,16,16,15,20,20,19,24.11,23.90,11,2,11,0.00
2013-12-10,14,4,-1,16,16,15,20,19,19,24.08,23.96,11,3,11,0.00
2013-12-11,21,12,4,16,16,15,20,19,19,24.19,24.08,6,1,6,0.00
2013-12-12,47,13,-5,16,16,15,20,19,19,24.19,23.93,3,0,4,0.00
2013-12-13,33,13,-2,16,16,15,20,19,19,24.14,23.87,7,1,7,0.00
2013-12-14,24,19,14,16,16,15,19,19,19,24.22,24.14,7,2,7,0.00
2013-12-15,28,19,2,16,16,15,19,19,19,24.22,24.14,6,1,6,0.00
2013-12-16,49,16,-1,16,16,15,20,19,19,24.22,24.11,4,0,4,0.00
2013-12-17,41,11,-5,16,16,15,20,19,19,24.22,23.96,4,0,4,0.00
2013-12-18,52,22,3,16,16,15,20,19,19,23.96,23.60,6,0,8,0.00
2013-12-19,40,18,-7,16,16,15,20,19,19,23.72,23.52,11,2,11,0.00
2013-12-20,14,4,-12,16,16,15,20,19,19,23.72,23.55,9,1,9,0.00
2013-12-21,26,17,11,16,16,15,20,19,19,23.84,23.55,9,2,9,0.00
2013-12-22,26,18,14,16,16,15,19,19,19,24.05,23.81,8,3,8,0.00
2013-12-23,29,22,14,16,16,15,19,19,19,24.08,23.90,11,1,11,0.00
2013-12-24,41,24,10,17,16,15,19,19,19,24.19,23.87,24,5,25,0.00
2013-12-25,28,18,4,16,16,15,20,19,19,24.28,24.19,9,2,9,0.00
2013-12-26,48,14,1,16,16,15,20,19,19,24.22,24.17,5,0,5,0.00
2013-12-27,51,14,-7,16,16,15,20,19,19,24.19,23.93,5,0,6,0.00
2013-12-28,53,22,8,16,16,15,20,19,19,24.05,23.90,14,1,15,0.00
2013-12-29,18,11,-4,16,16,15,20,19,19,24.08,23.96,4,0,5,0.00
2013-12-30,28,20,16,16,16,15,19,19,19,24.11,23.99,6,1,6,0.00
2013-12-31,27,22,13,16,16,15,19,19,19,23.99,23.87,6,0,6,0.00
2014-1-1,30,19,9,16,16,15,19,19,19,24.17,23.96,8,1,8,0.00
2014-1-2,30,23,17,16,16,15,19,19,19,24.14,23.93,6,1,7,0.00